Hoxie, Texas
Current Conditions -  °F | °C
As of 3:08 AM on Monday 22 Dec 2014 (Local Time) from KGRK Reporting Station
Scattered Clouds Scattered Clouds  
Wind Chill: 55°   Ceiling: Unl
Heat Index: 55°   Visibility: 10mi
Dew Point: 52°   Wind: 16mph
Humidity: 88%   Direction: 190°S
Pressure: 29.71"   Gusts: 22mph
Location:  30.5793°N, 97.5096°W
Report Text: KGRK 220908Z AUTO 19014G19KT 10SM SCT016 13/11 A2971 RMK AO2
Loading
Personal Weather Stations






























Interactive Weather Map New forecast layout! Learn more

10-Day Weather Forecast

Advertisements
Track Severe Weather on mobile